sensor_id;sensor_type;location;lat;lon;timestamp;P1;durP1;ratioP1;P2;durP2;ratioP2
24635;SDS011;12772;49.794;10.024;2023-02-10T00:01:45;34.87;;;21.23;;
24635;SDS011;12772;49.794;10.024;2023-02-10T00:05:47;33.40;;;20.93;;
24635;SDS011;12772;49.794;10.024;2023-02-10T00:09:49;33.70;;;21.40;;
24635;SDS011;12772;49.794;10.024;2023-02-10T00:13:51;32.10;;;21.43;;
24635;SDS011;12772;49.794;10.024;2023-02-10T00:17:53;29.27;;;20.17;;
24635;SDS011;12772;49.794;10.024;2023-02-10T00:21:55;30.87;;;20.40;;
24635;SDS011;12772;49.794;10.024;2023-02-10T00:25:57;31.97;;;21.87;;
24635;SDS011;12772;49.794;10.024;2023-02-10T00:29:59;30.13;;;20.63;;
24635;SDS011;12772;49.794;10.024;2023-02-10T00:34:01;30.00;;;20.23;;
24635;SDS011;12772;49.794;10.024;2023-02-10T00:38:03;28.07;;;19.40;;
24635;SDS011;12772;49.794;10.024;2023-02-10T00:42:05;29.70;;;19.37;;
24635;SDS011;12772;49.794;10.024;2023-02-10T00:46:07;27.33;;;19.57;;
24635;SDS011;12772;49.794;10.024;2023-02-10T00:50:09;24.23;;;17.90;;
24635;SDS011;12772;49.794;10.024;2023-02-10T00:54:12;26.03;;;17.73;;
24635;SDS011;12772;49.794;10.024;2023-02-10T00:58:14;31.23;;;19.30;;
24635;SDS011;12772;49.794;10.024;2023-02-10T01:02:16;30.83;;;21.13;;
24635;SDS011;12772;49.794;10.024;2023-02-10T01:06:18;31.23;;;18.30;;
24635;SDS011;12772;49.794;10.024;2023-02-10T01:10:20;27.53;;;17.93;;
24635;SDS011;12772;49.794;10.024;2023-02-10T01:14:23;30.33;;;18.27;;
24635;SDS011;12772;49.794;10.024;2023-02-10T01:18:25;30.87;;;20.30;;
24635;SDS011;12772;49.794;10.024;2023-02-10T01:22:28;27.10;;;18.77;;
24635;SDS011;12772;49.794;10.024;2023-02-10T01:26:30;30.60;;;19.27;;
24635;SDS011;12772;49.794;10.024;2023-02-10T01:30:32;29.87;;;18.87;;
24635;SDS011;12772;49.794;10.024;2023-02-10T01:34:36;25.97;;;17.90;;
24635;SDS011;12772;49.794;10.024;2023-02-10T01:38:38;26.30;;;17.77;;
24635;SDS011;12772;49.794;10.024;2023-02-10T01:42:40;28.17;;;19.57;;
24635;SDS011;12772;49.794;10.024;2023-02-10T01:46:42;31.40;;;20.33;;
24635;SDS011;12772;49.794;10.024;2023-02-10T01:50:49;29.47;;;19.80;;
24635;SDS011;12772;49.794;10.024;2023-02-10T01:55:05;30.63;;;19.80;;
24635;SDS011;12772;49.794;10.024;2023-02-10T01:59:09;26.13;;;18.43;;
24635;SDS011;12772;49.794;10.024;2023-02-10T02:03:13;32.03;;;21.60;;
24635;SDS011;12772;49.794;10.024;2023-02-10T02:07:16;26.43;;;18.50;;
24635;SDS011;12772;49.794;10.024;2023-02-10T02:20:06;29.13;;;19.37;;
24635;SDS011;12772;49.794;10.024;2023-02-10T02:24:59;27.80;;;18.63;;
24635;SDS011;12772;49.794;10.024;2023-02-10T02:37:29;28.23;;;18.43;;
24635;SDS011;12772;49.794;10.024;2023-02-10T02:41:33;27.80;;;18.40;;
24635;SDS011;12772;49.794;10.024;2023-02-10T02:49:52;26.33;;;18.07;;
24635;SDS011;12772;49.794;10.024;2023-02-10T03:02:22;26.47;;;18.30;;
24635;SDS011;12772;49.794;10.024;2023-02-10T03:06:29;29.53;;;18.80;;
24635;SDS011;12772;49.794;10.024;2023-02-10T03:10:31;29.03;;;18.77;;
24635;SDS011;12772;49.794;10.024;2023-02-10T03:14:33;27.37;;;18.80;;
24635;SDS011;12772;49.794;10.024;2023-02-10T03:18:35;30.77;;;18.50;;
24635;SDS011;12772;49.794;10.024;2023-02-10T03:22:37;26.57;;;18.00;;
24635;SDS011;12772;49.794;10.024;2023-02-10T03:26:39;28.07;;;18.23;;
24635;SDS011;12772;49.794;10.024;2023-02-10T03:30:42;27.90;;;17.57;;
24635;SDS011;12772;49.794;10.024;2023-02-10T03:34:47;27.37;;;18.20;;
24635;SDS011;12772;49.794;10.024;2023-02-10T03:38:49;32.43;;;19.47;;
24635;SDS011;12772;49.794;10.024;2023-02-10T03:42:51;27.87;;;19.07;;
24635;SDS011;12772;49.794;10.024;2023-02-10T03:46:53;28.07;;;18.53;;
24635;SDS011;12772;49.794;10.024;2023-02-10T03:50:55;24.97;;;17.10;;
24635;SDS011;12772;49.794;10.024;2023-02-10T03:54:57;25.07;;;16.90;;
24635;SDS011;12772;49.794;10.024;2023-02-10T03:59:00;26.30;;;17.30;;
24635;SDS011;12772;49.794;10.024;2023-02-10T04:03:03;31.67;;;18.73;;
24635;SDS011;12772;49.794;10.024;2023-02-10T04:07:05;34.83;;;19.53;;
24635;SDS011;12772;49.794;10.024;2023-02-10T04:11:07;27.13;;;18.20;;
24635;SDS011;12772;49.794;10.024;2023-02-10T04:15:09;30.50;;;19.07;;
24635;SDS011;12772;49.794;10.024;2023-02-10T04:19:11;30.53;;;19.83;;
24635;SDS011;12772;49.794;10.024;2023-02-10T04:23:13;26.50;;;17.37;;
24635;SDS011;12772;49.794;10.024;2023-02-10T04:27:15;29.93;;;18.20;;
24635;SDS011;12772;49.794;10.024;2023-02-10T04:31:18;30.17;;;18.77;;
24635;SDS011;12772;49.794;10.024;2023-02-10T04:35:20;27.63;;;17.73;;
24635;SDS011;12772;49.794;10.024;2023-02-10T04:39:22;28.03;;;17.90;;
24635;SDS011;12772;49.794;10.024;2023-02-10T04:43:24;26.70;;;18.13;;
24635;SDS011;12772;49.794;10.024;2023-02-10T04:47:26;29.40;;;17.70;;
24635;SDS011;12772;49.794;10.024;2023-02-10T04:51:29;33.53;;;20.47;;
24635;SDS011;12772;49.794;10.024;2023-02-10T04:55:31;28.87;;;18.80;;
24635;SDS011;12772;49.794;10.024;2023-02-10T04:59:34;28.53;;;19.13;;
24635;SDS011;12772;49.794;10.024;2023-02-10T05:03:36;31.27;;;20.53;;
24635;SDS011;12772;49.794;10.024;2023-02-10T05:07:38;34.60;;;20.07;;
24635;SDS011;12772;49.794;10.024;2023-02-10T05:11:40;30.03;;;18.93;;
24635;SDS011;12772;49.794;10.024;2023-02-10T05:15:44;28.90;;;18.23;;
24635;SDS011;12772;49.794;10.024;2023-02-10T05:19:46;27.87;;;18.70;;
24635;SDS011;12772;49.794;10.024;2023-02-10T05:23:48;30.03;;;19.33;;
24635;SDS011;12772;49.794;10.024;2023-02-10T05:27:50;26.87;;;18.23;;
24635;SDS011;12772;49.794;10.024;2023-02-10T05:31:55;32.13;;;20.83;;
24635;SDS011;12772;49.794;10.024;2023-02-10T05:35:57;32.90;;;19.90;;
24635;SDS011;12772;49.794;10.024;2023-02-10T05:39:59;30.03;;;19.67;;
24635;SDS011;12772;49.794;10.024;2023-02-10T05:44:01;29.73;;;20.07;;
24635;SDS011;12772;49.794;10.024;2023-02-10T05:48:04;30.47;;;21.33;;
24635;SDS011;12772;49.794;10.024;2023-02-10T05:52:07;31.90;;;21.00;;
24635;SDS011;12772;49.794;10.024;2023-02-10T05:56:09;29.57;;;19.10;;
24635;SDS011;12772;49.794;10.024;2023-02-10T06:00:11;33.67;;;19.73;;
24635;SDS011;12772;49.794;10.024;2023-02-10T06:04:14;34.57;;;21.13;;
24635;SDS011;12772;49.794;10.024;2023-02-10T06:08:16;43.60;;;24.90;;
24635;SDS011;12772;49.794;10.024;2023-02-10T06:12:18;33.60;;;21.00;;
24635;SDS011;12772;49.794;10.024;2023-02-10T06:16:20;39.63;;;24.07;;
24635;SDS011;12772;49.794;10.024;2023-02-10T06:20:22;40.60;;;23.83;;
24635;SDS011;12772;49.794;10.024;2023-02-10T06:24:24;39.60;;;24.70;;
24635;SDS011;12772;49.794;10.024;2023-02-10T06:28:27;39.50;;;24.73;;
24635;SDS011;12772;49.794;10.024;2023-02-10T06:32:29;40.73;;;23.50;;
24635;SDS011;12772;49.794;10.024;2023-02-10T06:36:31;37.90;;;23.87;;
24635;SDS011;12772;49.794;10.024;2023-02-10T06:40:33;36.77;;;23.77;;
24635;SDS011;12772;49.794;10.024;2023-02-10T06:44:35;44.47;;;25.77;;
24635;SDS011;12772;49.794;10.024;2023-02-10T06:48:37;44.83;;;25.13;;
24635;SDS011;12772;49.794;10.024;2023-02-10T06:52:39;39.97;;;25.40;;
24635;SDS011;12772;49.794;10.024;2023-02-10T06:56:41;43.30;;;26.50;;
24635;SDS011;12772;49.794;10.024;2023-02-10T07:00:46;47.87;;;28.33;;
24635;SDS011;12772;49.794;10.024;2023-02-10T07:04:48;40.13;;;26.53;;
24635;SDS011;12772;49.794;10.024;2023-02-10T07:08:50;45.80;;;27.13;;
24635;SDS011;12772;49.794;10.024;2023-02-10T07:12:52;41.50;;;27.23;;
24635;SDS011;12772;49.794;10.024;2023-02-10T07:16:54;45.30;;;26.63;;
24635;SDS011;12772;49.794;10.024;2023-02-10T07:20:56;46.47;;;30.00;;
24635;SDS011;12772;49.794;10.024;2023-02-10T07:24:58;48.53;;;29.73;;
24635;SDS011;12772;49.794;10.024;2023-02-10T07:29:00;47.80;;;30.47;;
24635;SDS011;12772;49.794;10.024;2023-02-10T07:33:02;42.93;;;29.07;;
24635;SDS011;12772;49.794;10.024;2023-02-10T07:37:04;46.03;;;28.50;;
24635;SDS011;12772;49.794;10.024;2023-02-10T07:41:06;46.83;;;30.13;;
24635;SDS011;12772;49.794;10.024;2023-02-10T07:45:09;45.87;;;27.93;;
24635;SDS011;12772;49.794;10.024;2023-02-10T07:49:11;47.40;;;28.73;;
24635;SDS011;12772;49.794;10.024;2023-02-10T07:53:13;43.60;;;27.17;;
24635;SDS011;12772;49.794;10.024;2023-02-10T07:57:15;44.47;;;27.37;;
24635;SDS011;12772;49.794;10.024;2023-02-10T08:01:18;39.37;;;26.97;;
24635;SDS011;12772;49.794;10.024;2023-02-10T08:05:20;42.23;;;26.87;;
24635;SDS011;12772;49.794;10.024;2023-02-10T08:09:23;40.33;;;27.10;;
24635;SDS011;12772;49.794;10.024;2023-02-10T08:13:25;37.70;;;24.53;;
24635;SDS011;12772;49.794;10.024;2023-02-10T08:17:27;38.77;;;24.63;;
24635;SDS011;12772;49.794;10.024;2023-02-10T08:21:29;34.37;;;24.27;;
24635;SDS011;12772;49.794;10.024;2023-02-10T08:25:32;34.33;;;22.80;;
24635;SDS011;12772;49.794;10.024;2023-02-10T08:29:34;34.13;;;23.93;;
24635;SDS011;12772;49.794;10.024;2023-02-10T08:33:36;36.53;;;25.00;;
24635;SDS011;12772;49.794;10.024;2023-02-10T08:37:41;40.00;;;25.90;;
24635;SDS011;12772;49.794;10.024;2023-02-10T08:41:43;36.30;;;23.77;;
24635;SDS011;12772;49.794;10.024;2023-02-10T08:45:45;33.70;;;23.53;;
24635;SDS011;12772;49.794;10.024;2023-02-10T08:49:47;35.97;;;24.03;;
24635;SDS011;12772;49.794;10.024;2023-02-10T08:53:49;36.07;;;23.07;;
24635;SDS011;12772;49.794;10.024;2023-02-10T08:57:51;33.33;;;23.13;;
24635;SDS011;12772;49.794;10.024;2023-02-10T09:01:53;34.27;;;23.00;;
24635;SDS011;12772;49.794;10.024;2023-02-10T09:05:55;38.67;;;23.93;;
24635;SDS011;12772;49.794;10.024;2023-02-10T09:09:57;30.83;;;22.43;;
24635;SDS011;12772;49.794;10.024;2023-02-10T09:13:59;33.67;;;23.77;;
24635;SDS011;12772;49.794;10.024;2023-02-10T09:18:02;35.40;;;25.53;;
24635;SDS011;12772;49.794;10.024;2023-02-10T09:22:05;38.20;;;25.73;;
24635;SDS011;12772;49.794;10.024;2023-02-10T09:26:07;31.60;;;22.43;;
24635;SDS011;12772;49.794;10.024;2023-02-10T09:30:10;34.37;;;23.17;;
24635;SDS011;12772;49.794;10.024;2023-02-10T09:34:12;36.33;;;24.50;;
24635;SDS011;12772;49.794;10.024;2023-02-10T09:38:14;34.07;;;25.13;;
24635;SDS011;12772;49.794;10.024;2023-02-10T09:55:27;35.63;;;24.13;;
24635;SDS011;12772;49.794;10.024;2023-02-10T09:59:47;33.70;;;24.47;;
24635;SDS011;12772;49.794;10.024;2023-02-10T10:08:46;36.67;;;25.10;;
24635;SDS011;12772;49.794;10.024;2023-02-10T10:13:15;36.23;;;23.77;;
24635;SDS011;12772;49.794;10.024;2023-02-10T10:21:46;35.53;;;25.07;;
24635;SDS011;12772;49.794;10.024;2023-02-10T10:30:48;34.80;;;23.43;;
24635;SDS011;12772;49.794;10.024;2023-02-10T10:35:03;41.70;;;24.87;;
24635;SDS011;12772;49.794;10.024;2023-02-10T10:43:47;38.00;;;24.90;;
24635;SDS011;12772;49.794;10.024;2023-02-10T10:47:52;34.50;;;24.17;;
24635;SDS011;12772;49.794;10.024;2023-02-10T10:52:01;33.27;;;22.97;;
24635;SDS011;12772;49.794;10.024;2023-02-10T11:00:51;36.63;;;23.93;;
24635;SDS011;12772;49.794;10.024;2023-02-10T11:05:28;29.37;;;22.23;;
24635;SDS011;12772;49.794;10.024;2023-02-10T11:09:35;32.00;;;22.40;;
24635;SDS011;12772;49.794;10.024;2023-02-10T11:13:49;34.77;;;23.37;;
24635;SDS011;12772;49.794;10.024;2023-02-10T11:17:54;33.90;;;23.37;;
24635;SDS011;12772;49.794;10.024;2023-02-10T11:21:57;32.90;;;24.30;;
24635;SDS011;12772;49.794;10.024;2023-02-10T11:26:04;31.73;;;23.70;;
24635;SDS011;12772;49.794;10.024;2023-02-10T11:30:23;32.53;;;23.40;;
24635;SDS011;12772;49.794;10.024;2023-02-10T11:34:32;33.47;;;23.63;;
24635;SDS011;12772;49.794;10.024;2023-02-10T11:38:40;32.97;;;23.13;;
24635;SDS011;12772;49.794;10.024;2023-02-10T11:42:45;31.13;;;23.15;;
24635;SDS011;12772;49.794;10.024;2023-02-10T11:46:59;35.10;;;23.53;;
24635;SDS011;12772;49.794;10.024;2023-02-10T11:51:14;31.77;;;22.95;;
24635;SDS011;12772;49.794;10.024;2023-02-10T11:55:19;35.30;;;25.90;;
24635;SDS011;12772;49.794;10.024;2023-02-10T12:03:40;31.75;;;21.30;;
24635;SDS011;12772;49.794;10.024;2023-02-10T12:12:08;33.37;;;25.50;;
24635;SDS011;12772;49.794;10.024;2023-02-10T12:16:57;31.93;;;23.13;;
24635;SDS011;12772;49.794;10.024;2023-02-10T12:25:22;32.45;;;23.30;;
24635;SDS011;12772;49.794;10.024;2023-02-10T12:29:45;30.08;;;21.95;;
24635;SDS011;12772;49.794;10.024;2023-02-10T12:39:05;30.92;;;22.75;;
24635;SDS011;12772;49.794;10.024;2023-02-10T12:47:48;29.35;;;22.13;;
24635;SDS011;12772;49.794;10.024;2023-02-10T12:52:21;28.93;;;21.93;;
24635;SDS011;12772;49.794;10.024;2023-02-10T12:56:41;32.42;;;24.20;;
24635;SDS011;12772;49.794;10.024;2023-02-10T13:00:51;31.38;;;22.10;;
24635;SDS011;12772;49.794;10.024;2023-02-10T13:05:03;36.67;;;24.58;;
24635;SDS011;12772;49.794;10.024;2023-02-10T13:13:38;32.17;;;23.55;;
24635;SDS011;12772;49.794;10.024;2023-02-10T13:17:48;34.60;;;23.77;;
24635;SDS011;12772;49.794;10.024;2023-02-10T13:22:02;28.45;;;22.02;;
24635;SDS011;12772;49.794;10.024;2023-02-10T13:35:16;32.80;;;22.55;;
24635;SDS011;12772;49.794;10.024;2023-02-10T13:39:24;33.17;;;24.38;;
24635;SDS011;12772;49.794;10.024;2023-02-10T13:43:30;33.90;;;24.13;;
24635;SDS011;12772;49.794;10.024;2023-02-10T13:47:46;30.85;;;24.17;;
24635;SDS011;12772;49.794;10.024;2023-02-10T13:51:50;30.27;;;23.48;;
24635;SDS011;12772;49.794;10.024;2023-02-10T14:00:25;34.78;;;23.80;;
24635;SDS011;12772;49.794;10.024;2023-02-10T14:04:42;31.63;;;23.90;;
24635;SDS011;12772;49.794;10.024;2023-02-10T14:08:47;31.75;;;25.05;;
24635;SDS011;12772;49.794;10.024;2023-02-10T14:13:03;36.28;;;24.35;;
24635;SDS011;12772;49.794;10.024;2023-02-10T14:17:26;31.17;;;23.38;;
24635;SDS011;12772;49.794;10.024;2023-02-10T14:21:40;31.80;;;23.30;;
24635;SDS011;12772;49.794;10.024;2023-02-10T14:25:44;31.27;;;23.55;;
24635;SDS011;12772;49.794;10.024;2023-02-10T14:29:53;32.88;;;24.48;;
24635;SDS011;12772;49.794;10.024;2023-02-10T14:33:59;33.40;;;23.85;;
24635;SDS011;12772;49.794;10.024;2023-02-10T14:38:02;33.53;;;23.48;;
24635;SDS011;12772;49.794;10.024;2023-02-10T14:42:06;26.23;;;19.58;;
24635;SDS011;12772;49.794;10.024;2023-02-10T14:46:08;31.23;;;24.05;;
24635;SDS011;12772;49.794;10.024;2023-02-10T14:50:26;30.73;;;22.67;;
24635;SDS011;12772;49.794;10.024;2023-02-10T14:54:35;32.47;;;22.40;;
24635;SDS011;12772;49.794;10.024;2023-02-10T14:58:42;32.08;;;23.48;;
24635;SDS011;12772;49.794;10.024;2023-02-10T15:02:46;34.72;;;24.90;;
24635;SDS011;12772;49.794;10.024;2023-02-10T15:06:51;32.03;;;23.17;;
24635;SDS011;12772;49.794;10.024;2023-02-10T15:10:55;31.08;;;22.85;;
24635;SDS011;12772;49.794;10.024;2023-02-10T15:15:19;26.50;;;20.45;;
24635;SDS011;12772;49.794;10.024;2023-02-10T15:19:33;29.42;;;21.45;;
24635;SDS011;12772;49.794;10.024;2023-02-10T15:23:36;28.40;;;20.77;;
24635;SDS011;12772;49.794;10.024;2023-02-10T15:27:49;27.88;;;21.23;;
24635;SDS011;12772;49.794;10.024;2023-02-10T15:31:53;30.70;;;22.15;;
24635;SDS011;12772;49.794;10.024;2023-02-10T15:40:16;31.92;;;23.10;;
24635;SDS011;12772;49.794;10.024;2023-02-10T15:44:40;43.80;;;23.35;;
24635;SDS011;12772;49.794;10.024;2023-02-10T15:48:43;36.00;;;21.75;;
24635;SDS011;12772;49.794;10.024;2023-02-10T15:52:46;40.30;;;24.33;;
24635;SDS011;12772;49.794;10.024;2023-02-10T16:01:02;50.33;;;26.92;;
24635;SDS011;12772;49.794;10.024;2023-02-10T16:05:04;64.57;;;28.08;;
24635;SDS011;12772;49.794;10.024;2023-02-10T16:09:06;75.90;;;29.25;;
24635;SDS011;12772;49.794;10.024;2023-02-10T16:13:09;58.83;;;28.30;;
24635;SDS011;12772;49.794;10.024;2023-02-10T16:17:18;46.58;;;26.50;;
24635;SDS011;12772;49.794;10.024;2023-02-10T16:21:24;117.57;;;59.13;;
24635;SDS011;12772;49.794;10.024;2023-02-10T16:25:26;64.78;;;35.97;;
24635;SDS011;12772;49.794;10.024;2023-02-10T16:29:29;93.75;;;40.22;;
24635;SDS011;12772;49.794;10.024;2023-02-10T16:33:32;61.83;;;34.92;;
24635;SDS011;12772;49.794;10.024;2023-02-10T16:37:35;110.38;;;35.72;;
24635;SDS011;12772;49.794;10.024;2023-02-10T16:41:37;157.27;;;39.25;;
24635;SDS011;12772;49.794;10.024;2023-02-10T16:45:39;226.95;;;49.13;;
24635;SDS011;12772;49.794;10.024;2023-02-10T16:49:41;103.78;;;35.90;;
24635;SDS011;12772;49.794;10.024;2023-02-10T16:53:43;178.25;;;40.53;;
24635;SDS011;12772;49.794;10.024;2023-02-10T16:57:46;83.68;;;31.08;;
24635;SDS011;12772;49.794;10.024;2023-02-10T17:01:48;128.55;;;35.65;;
24635;SDS011;12772;49.794;10.024;2023-02-10T17:05:50;67.18;;;29.33;;
24635;SDS011;12772;49.794;10.024;2023-02-10T17:09:52;53.13;;;28.35;;
24635;SDS011;12772;49.794;10.024;2023-02-10T17:13:54;58.92;;;27.17;;
24635;SDS011;12772;49.794;10.024;2023-02-10T17:17:56;61.50;;;27.48;;
24635;SDS011;12772;49.794;10.024;2023-02-10T17:21:59;59.30;;;27.27;;
24635;SDS011;12772;49.794;10.024;2023-02-10T17:26:02;48.70;;;25.42;;
24635;SDS011;12772;49.794;10.024;2023-02-10T17:30:04;37.42;;;26.55;;
24635;SDS011;12772;49.794;10.024;2023-02-10T17:34:07;38.45;;;26.45;;
24635;SDS011;12772;49.794;10.024;2023-02-10T17:38:10;43.20;;;29.60;;
24635;SDS011;12772;49.794;10.024;2023-02-10T17:42:26;36.92;;;26.13;;
24635;SDS011;12772;49.794;10.024;2023-02-10T17:46:29;36.40;;;28.83;;
24635;SDS011;12772;49.794;10.024;2023-02-10T17:50:31;36.67;;;27.88;;
24635;SDS011;12772;49.794;10.024;2023-02-10T17:54:34;36.03;;;28.33;;
24635;SDS011;12772;49.794;10.024;2023-02-10T17:58:36;48.83;;;35.15;;
24635;SDS011;12772;49.794;10.024;2023-02-10T18:02:38;46.05;;;32.22;;
24635;SDS011;12772;49.794;10.024;2023-02-10T18:06:41;55.13;;;36.95;;
24635;SDS011;12772;49.794;10.024;2023-02-10T18:10:43;47.60;;;33.53;;
24635;SDS011;12772;49.794;10.024;2023-02-10T18:14:47;45.30;;;31.23;;
24635;SDS011;12772;49.794;10.024;2023-02-10T18:18:50;43.20;;;29.90;;
24635;SDS011;12772;49.794;10.024;2023-02-10T18:22:52;36.47;;;26.83;;
24635;SDS011;12772;49.794;10.024;2023-02-10T18:26:54;33.55;;;25.02;;
24635;SDS011;12772;49.794;10.024;2023-02-10T18:30:58;34.95;;;25.58;;
24635;SDS011;12772;49.794;10.024;2023-02-10T18:35:01;43.95;;;27.48;;
24635;SDS011;12772;49.794;10.024;2023-02-10T18:39:04;69.13;;;42.65;;
24635;SDS011;12772;49.794;10.024;2023-02-10T18:43:07;75.78;;;42.85;;
24635;SDS011;12772;49.794;10.024;2023-02-10T18:47:10;74.22;;;43.55;;
24635;SDS011;12772;49.794;10.024;2023-02-10T18:51:13;66.25;;;38.60;;
24635;SDS011;12772;49.794;10.024;2023-02-10T18:55:16;58.08;;;35.42;;
24635;SDS011;12772;49.794;10.024;2023-02-10T18:59:18;49.55;;;32.40;;
24635;SDS011;12772;49.794;10.024;2023-02-10T19:03:24;48.72;;;30.98;;
24635;SDS011;12772;49.794;10.024;2023-02-10T19:07:26;36.58;;;27.52;;
24635;SDS011;12772;49.794;10.024;2023-02-10T19:11:28;42.40;;;27.65;;
24635;SDS011;12772;49.794;10.024;2023-02-10T19:15:30;35.22;;;26.48;;
24635;SDS011;12772;49.794;10.024;2023-02-10T19:19:32;37.28;;;26.85;;
24635;SDS011;12772;49.794;10.024;2023-02-10T19:23:34;37.45;;;25.33;;
24635;SDS011;12772;49.794;10.024;2023-02-10T19:27:36;27.15;;;21.83;;
24635;SDS011;12772;49.794;10.024;2023-02-10T19:31:38;32.60;;;22.05;;
24635;SDS011;12772;49.794;10.024;2023-02-10T19:35:47;31.90;;;25.25;;
24635;SDS011;12772;49.794;10.024;2023-02-10T19:39:50;30.25;;;24.30;;
24635;SDS011;12772;49.794;10.024;2023-02-10T19:43:52;33.10;;;24.30;;
24635;SDS011;12772;49.794;10.024;2023-02-10T19:47:54;30.58;;;23.85;;
24635;SDS011;12772;49.794;10.024;2023-02-10T19:51:56;30.77;;;21.48;;
24635;SDS011;12772;49.794;10.024;2023-02-10T19:55:58;29.90;;;22.50;;
24635;SDS011;12772;49.794;10.024;2023-02-10T20:00:01;29.00;;;22.30;;
24635;SDS011;12772;49.794;10.024;2023-02-10T20:04:04;35.13;;;25.10;;
24635;SDS011;12772;49.794;10.024;2023-02-10T20:08:08;31.55;;;23.40;;
24635;SDS011;12772;49.794;10.024;2023-02-10T20:12:10;29.60;;;22.30;;
24635;SDS011;12772;49.794;10.024;2023-02-10T20:16:12;27.35;;;21.95;;
24635;SDS011;12772;49.794;10.024;2023-02-10T20:20:15;31.38;;;22.38;;
24635;SDS011;12772;49.794;10.024;2023-02-10T20:24:17;29.67;;;23.00;;
24635;SDS011;12772;49.794;10.024;2023-02-10T20:28:19;40.10;;;32.22;;
24635;SDS011;12772;49.794;10.024;2023-02-10T20:32:22;37.47;;;26.63;;
24635;SDS011;12772;49.794;10.024;2023-02-10T20:36:24;33.75;;;23.90;;
24635;SDS011;12772;49.794;10.024;2023-02-10T20:40:26;31.55;;;23.58;;
24635;SDS011;12772;49.794;10.024;2023-02-10T20:44:28;31.33;;;23.77;;
24635;SDS011;12772;49.794;10.024;2023-02-10T20:48:30;32.45;;;23.15;;
24635;SDS011;12772;49.794;10.024;2023-02-10T20:52:32;26.25;;;20.25;;
24635;SDS011;12772;49.794;10.024;2023-02-10T20:56:36;31.40;;;21.10;;
24635;SDS011;12772;49.794;10.024;2023-02-10T21:00:38;27.98;;;21.20;;
24635;SDS011;12772;49.794;10.024;2023-02-10T21:04:40;28.40;;;20.95;;
24635;SDS011;12772;49.794;10.024;2023-02-10T21:08:43;29.83;;;22.03;;
24635;SDS011;12772;49.794;10.024;2023-02-10T21:12:46;26.02;;;20.58;;
24635;SDS011;12772;49.794;10.024;2023-02-10T21:16:48;29.08;;;21.58;;
24635;SDS011;12772;49.794;10.024;2023-02-10T21:20:59;26.50;;;21.02;;
24635;SDS011;12772;49.794;10.024;2023-02-10T21:25:03;27.77;;;21.65;;
24635;SDS011;12772;49.794;10.024;2023-02-10T21:29:06;27.40;;;21.35;;
24635;SDS011;12772;49.794;10.024;2023-02-10T21:33:09;27.27;;;20.92;;
24635;SDS011;12772;49.794;10.024;2023-02-10T21:37:11;30.20;;;21.75;;
24635;SDS011;12772;49.794;10.024;2023-02-10T21:41:14;29.55;;;20.65;;
24635;SDS011;12772;49.794;10.024;2023-02-10T21:45:30;31.83;;;21.17;;
24635;SDS011;12772;49.794;10.024;2023-02-10T21:49:32;29.00;;;22.15;;
24635;SDS011;12772;49.794;10.024;2023-02-10T21:53:36;28.88;;;21.50;;
24635;SDS011;12772;49.794;10.024;2023-02-10T21:57:38;30.25;;;21.83;;
24635;SDS011;12772;49.794;10.024;2023-02-10T22:01:40;30.33;;;21.10;;
24635;SDS011;12772;49.794;10.024;2023-02-10T22:05:43;35.15;;;25.33;;
24635;SDS011;12772;49.794;10.024;2023-02-10T22:09:54;30.17;;;23.42;;
24635;SDS011;12772;49.794;10.024;2023-02-10T22:13:57;35.13;;;24.20;;
24635;SDS011;12772;49.794;10.024;2023-02-10T22:17:59;33.97;;;22.30;;
24635;SDS011;12772;49.794;10.024;2023-02-10T22:22:01;35.17;;;23.45;;
24635;SDS011;12772;49.794;10.024;2023-02-10T22:26:04;30.02;;;22.13;;
24635;SDS011;12772;49.794;10.024;2023-02-10T22:30:07;33.22;;;22.38;;
24635;SDS011;12772;49.794;10.024;2023-02-10T22:34:10;30.70;;;20.52;;
24635;SDS011;12772;49.794;10.024;2023-02-10T22:38:12;29.15;;;20.98;;
24635;SDS011;12772;49.794;10.024;2023-02-10T22:42:14;30.27;;;20.98;;
24635;SDS011;12772;49.794;10.024;2023-02-10T22:46:16;29.42;;;21.10;;
24635;SDS011;12772;49.794;10.024;2023-02-10T22:50:19;27.15;;;20.65;;
24635;SDS011;12772;49.794;10.024;2023-02-10T22:54:21;27.95;;;20.80;;
24635;SDS011;12772;49.794;10.024;2023-02-10T22:58:23;27.77;;;20.40;;
24635;SDS011;12772;49.794;10.024;2023-02-10T23:02:25;27.88;;;20.30;;
24635;SDS011;12772;49.794;10.024;2023-02-10T23:06:27;28.43;;;20.60;;
24635;SDS011;12772;49.794;10.024;2023-02-10T23:10:29;28.52;;;21.25;;
24635;SDS011;12772;49.794;10.024;2023-02-10T23:14:32;29.23;;;19.85;;
24635;SDS011;12772;49.794;10.024;2023-02-10T23:18:34;28.77;;;20.25;;
24635;SDS011;12772;49.794;10.024;2023-02-10T23:22:37;27.67;;;20.27;;
24635;SDS011;12772;49.794;10.024;2023-02-10T23:26:39;31.38;;;21.20;;
24635;SDS011;12772;49.794;10.024;2023-02-10T23:30:42;30.98;;;22.98;;
24635;SDS011;12772;49.794;10.024;2023-02-10T23:34:44;29.92;;;20.85;;
24635;SDS011;12772;49.794;10.024;2023-02-10T23:38:46;30.77;;;20.87;;
24635;SDS011;12772;49.794;10.024;2023-02-10T23:42:48;27.85;;;19.98;;
24635;SDS011;12772;49.794;10.024;2023-02-10T23:46:51;29.77;;;20.88;;
24635;SDS011;12772;49.794;10.024;2023-02-10T23:50:53;28.65;;;20.15;;
24635;SDS011;12772;49.794;10.024;2023-02-10T23:54:55;29.13;;;20.85;;
24635;SDS011;12772;49.794;10.024;2023-02-10T23:58:57;30.42;;;22.02;;
